Estación Meteorológica Peña el Pijo (Robertgarden) [ 12/10/18 11:44:29 CET ]

Fecha Hora Presion(HPa) Temp (°C) Humedad % Rocio (°C) Viento ( m/s) Direccion Lluvia 1Hora(mm) Lluvia 24H(mm) LLuvia Total(mm)
2018-Oct-20 01:01:54 1007.900 5.3 86 3.1       2.59 30.04
2018-Oct-20 02:01:50 1007.700 5.4 86 3.2       2.59 30.04
2018-Oct-20 03:02:23 1007.500 7.9 88 6.1       2.59 30.04
2018-Oct-20 04:02:22 1008.000 9.3 89 7.6       2.59 30.04
2018-Oct-20 05:04:30 1007.800 9.7 88 7.8       2.59 30.04
2018-Oct-20 06:10:06 1007.100 10.9 88 9.0       2.59 30.04
2018-Oct-20 07:01:55 1007.300 10.8 87 8.7       2.59 30.04
2018-Oct-20 08:01:38 1007.500 9.8 88 7.9 3.3 NNE   1.03 30.04
2018-Oct-20 09:01:44 1008.700 9.8 89 8.0       0.51 30.04
2018-Oct-20 10:01:38 1009.500 11.0 89 9.2       0.51 30.04
2018-Oct-20 11:02:08 1009.500 13.4 86 11.1     0.51 1.03 30.56
2018-Oct-20 12:01:51 1009.600 16.5 77 12.4       1.03 30.56
2018-Oct-20 13:01:44 1010.000 16.4 70 11.0       0.51 30.56
2018-Oct-20 14:01:34 1010.100 16.1 70 10.7 0.6 N   0.51 30.56
2018-Oct-20 15:01:38 1009.800 15.3 75 10.9       0.51 30.56
2018-Oct-20 16:01:53 1009.500 14.9 74 10.3       0.51 30.56
2018-Oct-20 17:01:48 1009.300 14.9 72 9.9 2.6 NNE   0.51 30.56
2018-Oct-20 18:01:48 1009.400 14.8 75 10.4 1.3 NNE   0.51 30.56
2018-Oct-20 19:01:34 1009.600 14.9 75 10.5 2.6 NNE   0.51 30.56
2018-Oct-20 20:01:43 1010.200 14.7 74 10.1 2.9 NNW   0.51 30.56
2018-Oct-20 21:01:45 1010.600 14.4 74 9.8 0.9 NNE   0.51 30.56
2018-Oct-20 22:01:44 1011.100 14.5 75 10.1       0.51 30.56
2018-Oct-20 23:01:41 1011.600 14.3 75 9.9 2.2 NNE   0.51 30.56

Temperatura Máxima:16°    Temperatura Mínima:
Presión Máxima:1011.600 Hpa    Presión Mínima:1007.100 Hpa


Volver